createdAt,value
2023-07-04T00:01:26.941Z,3.63
2023-07-04T00:03:56.010Z,3.17
2023-07-04T00:06:24.927Z,3.20
2023-07-04T00:08:52.334Z,2.80
2023-07-04T00:11:20.552Z,3.37
2023-07-04T00:13:50.998Z,3.13
2023-07-04T00:16:18.144Z,3.50
2023-07-04T00:18:45.668Z,3.20
2023-07-04T00:21:13.913Z,3.20
2023-07-04T00:23:46.660Z,2.77
2023-07-04T00:26:17.993Z,3.27
2023-07-04T00:28:45.121Z,2.87
2023-07-04T00:31:17.126Z,3.03
2023-07-04T00:33:44.111Z,2.97
2023-07-04T00:36:16.068Z,3.53
2023-07-04T00:38:45.398Z,2.73
2023-07-04T00:41:21.990Z,3.17
2023-07-04T00:44:11.242Z,3.13
2023-07-04T00:46:54.499Z,2.97
2023-07-04T00:49:59.087Z,3.50
2023-07-04T00:52:34.078Z,3.60
2023-07-04T00:55:05.806Z,2.97
2023-07-04T00:57:34.634Z,2.77
2023-07-04T01:00:17.875Z,2.80
2023-07-04T01:02:47.120Z,3.27
2023-07-04T01:05:20.561Z,3.63
2023-07-04T01:08:00.648Z,2.70
2023-07-04T01:10:33.260Z,3.20
2023-07-04T01:13:00.253Z,3.10
2023-07-04T01:15:30.743Z,3.00
2023-07-04T01:17:59.170Z,2.93
2023-07-04T01:20:26.430Z,3.37
2023-07-04T01:23:21.306Z,3.20
2023-07-04T01:25:57.852Z,3.20
2023-07-04T01:28:25.728Z,3.00
2023-07-04T01:30:52.998Z,2.40
2023-07-04T01:33:22.230Z,2.80
2023-07-04T01:35:49.570Z,3.40
2023-07-04T01:38:16.304Z,3.00
2023-07-04T01:40:43.410Z,3.27
2023-07-04T01:43:10.256Z,2.70
2023-07-04T01:45:37.012Z,3.50
2023-07-04T01:48:04.075Z,3.30
2023-07-04T01:50:30.870Z,2.67
2023-07-04T01:52:57.669Z,2.70
2023-07-04T01:55:24.709Z,3.40
2023-07-04T01:57:51.576Z,3.83
2023-07-04T02:00:19.562Z,4.00
2023-07-04T02:02:55.550Z,3.00
2023-07-04T02:05:22.388Z,3.40
2023-07-04T02:07:49.190Z,3.10
2023-07-04T02:10:16.118Z,3.97
2023-07-04T02:12:43.295Z,2.77
2023-07-04T02:15:10.399Z,3.50
2023-07-04T02:17:37.421Z,3.90
2023-07-04T02:20:05.160Z,3.67
2023-07-04T02:22:32.715Z,3.03
2023-07-04T02:24:59.475Z,3.00
2023-07-04T02:27:27.124Z,3.53
2023-07-04T02:29:54.276Z,3.53
2023-07-04T02:32:21.596Z,2.43
2023-07-04T02:34:48.413Z,4.07
2023-07-04T02:37:16.937Z,3.40
2023-07-04T02:39:44.840Z,3.23
2023-07-04T02:42:11.667Z,3.77
2023-07-04T02:44:38.987Z,3.13
2023-07-04T02:47:06.590Z,3.07
2023-07-04T02:49:36.541Z,3.57
2023-07-04T02:52:05.068Z,2.80
2023-07-04T02:54:31.813Z,3.20
2023-07-04T02:56:59.282Z,3.83
2023-07-04T02:59:26.068Z,3.30
2023-07-04T03:01:54.275Z,3.00
2023-07-04T03:04:21.734Z,3.10
2023-07-04T03:06:49.286Z,3.90
2023-07-04T03:09:16.093Z,2.90
2023-07-04T03:11:42.894Z,2.97
2023-07-04T03:14:10.729Z,2.93
2023-07-04T03:16:38.285Z,3.90
2023-07-04T03:19:06.433Z,3.17
2023-07-04T03:21:33.391Z,3.57
2023-07-04T03:24:02.319Z,4.90
2023-07-04T03:26:29.892Z,3.67
2023-07-04T03:28:57.472Z,3.40
2023-07-04T03:31:24.765Z,4.20
2023-07-04T03:33:51.812Z,4.50
2023-07-04T03:36:18.821Z,4.70
2023-07-04T03:38:45.637Z,4.40
2023-07-04T03:41:12.396Z,3.10
2023-07-04T03:43:39.965Z,4.00
2023-07-04T03:46:06.886Z,3.63
2023-07-04T03:48:33.814Z,4.57
2023-07-04T03:51:00.697Z,3.57
2023-07-04T03:53:27.502Z,4.00
2023-07-04T03:55:54.280Z,3.40
2023-07-04T03:58:21.096Z,3.80
2023-07-04T04:00:48.572Z,3.90
2023-07-04T04:03:15.756Z,3.47
2023-07-04T04:05:44.219Z,3.87
2023-07-04T04:08:11.319Z,4.00
2023-07-04T04:10:38.031Z,3.17
2023-07-04T04:13:04.815Z,4.13
2023-07-04T04:15:31.614Z,4.13
2023-07-04T04:17:58.457Z,3.70
2023-07-04T04:20:27.027Z,4.23
2023-07-04T04:22:54.434Z,4.43
2023-07-04T04:25:21.209Z,3.20
2023-07-04T04:27:48.011Z,3.83
2023-07-04T04:30:15.582Z,4.60
2023-07-04T04:32:42.788Z,4.10
2023-07-04T04:35:10.156Z,3.63
2023-07-04T04:37:37.007Z,4.67
2023-07-04T04:40:07.958Z,4.20
2023-07-04T04:42:36.390Z,4.53
2023-07-04T04:45:04.667Z,4.90
2023-07-04T04:47:34.789Z,3.87
2023-07-04T04:50:03.568Z,3.60
2023-07-04T04:52:32.157Z,3.57
2023-07-04T04:55:02.144Z,3.57
2023-07-04T04:57:30.102Z,3.57
2023-07-04T05:00:02.122Z,4.40
2023-07-04T05:02:32.261Z,3.80
2023-07-04T05:05:02.492Z,3.70
2023-07-04T05:07:30.423Z,4.50
2023-07-04T05:09:59.298Z,3.47
2023-07-04T05:12:26.313Z,4.67
2023-07-04T05:14:53.187Z,4.10
2023-07-04T05:17:20.176Z,4.23
2023-07-04T05:19:51.534Z,4.00
2023-07-04T05:22:19.388Z,4.10
2023-07-04T05:24:46.336Z,4.70
2023-07-04T05:27:13.438Z,3.90
2023-07-04T05:29:40.275Z,4.13
2023-07-04T05:32:07.409Z,4.80
2023-07-04T05:34:34.260Z,4.23
2023-07-04T05:37:05.102Z,5.00
2023-07-04T05:39:31.922Z,3.97
2023-07-04T05:41:58.792Z,3.67
2023-07-04T05:44:25.597Z,4.20
2023-07-04T05:46:54.857Z,4.13
2023-07-04T05:49:21.707Z,3.97
2023-07-04T05:51:48.563Z,4.00
2023-07-04T05:54:15.360Z,4.60
2023-07-04T05:56:42.199Z,5.00
2023-07-04T05:59:10.245Z,4.33
2023-07-04T06:01:40.865Z,4.00
2023-07-04T06:04:10.040Z,4.00
2023-07-04T06:06:39.107Z,4.10
2023-07-04T06:09:12.112Z,4.83
2023-07-04T06:11:44.430Z,4.83
2023-07-04T06:14:11.212Z,4.30
2023-07-04T06:16:38.261Z,3.90
2023-07-04T06:19:05.203Z,3.90
2023-07-04T06:21:43.037Z,3.83
2023-07-04T06:24:11.117Z,4.37
2023-07-04T06:26:38.185Z,4.10
2023-07-04T06:29:05.439Z,3.60
2023-07-04T06:31:32.252Z,4.80
2023-07-04T06:34:01.145Z,4.37
2023-07-04T06:36:28.196Z,4.03
2023-07-04T06:38:54.942Z,4.10
2023-07-04T06:41:21.749Z,4.10
2023-07-04T06:43:49.036Z,3.73
2023-07-04T06:46:21.112Z,4.30
2023-07-04T06:48:49.582Z,4.00
2023-07-04T06:51:18.075Z,4.03
2023-07-04T06:53:46.055Z,3.93
2023-07-04T06:56:15.561Z,3.60
2023-07-04T06:58:46.422Z,5.00
2023-07-04T07:01:13.506Z,3.50
2023-07-04T07:03:40.846Z,3.90
2023-07-04T07:06:09.510Z,4.17
2023-07-04T07:08:37.095Z,3.90
2023-07-04T07:11:06.671Z,3.77
2023-07-04T07:13:33.757Z,4.47
2023-07-04T07:16:14.438Z,4.27
2023-07-04T07:18:43.200Z,3.83
2023-07-04T07:21:12.882Z,4.33
2023-07-04T07:23:40.506Z,4.77
2023-07-04T07:26:10.766Z,4.10
2023-07-04T07:28:40.276Z,4.13
2023-07-04T07:31:34.021Z,4.13
2023-07-04T07:34:01.490Z,3.90
2023-07-04T07:36:32.044Z,3.80
2023-07-04T07:38:59.860Z,3.27
2023-07-04T07:41:29.998Z,3.67
2023-07-04T07:43:57.402Z,3.90
2023-07-04T07:46:24.184Z,3.57
2023-07-04T07:48:51.566Z,3.10
2023-07-04T07:51:20.967Z,3.43
2023-07-04T07:53:50.101Z,3.50
2023-07-04T07:56:19.573Z,3.27
2023-07-04T07:58:47.096Z,2.97
2023-07-04T08:01:20.571Z,2.97
2023-07-04T08:03:48.299Z,3.60
2023-07-04T08:06:26.174Z,4.03
2023-07-04T08:08:54.136Z,3.73
2023-07-04T08:11:22.166Z,3.67
2023-07-04T08:13:50.055Z,3.17
2023-07-04T08:16:31.245Z,4.07
2023-07-04T08:19:00.455Z,3.10
2023-07-04T08:21:30.854Z,3.87
2023-07-04T08:23:57.834Z,3.50
2023-07-04T08:26:26.358Z,3.40
2023-07-04T08:28:55.116Z,3.33
2023-07-04T08:31:22.971Z,3.53
2023-07-04T08:33:50.539Z,3.40
2023-07-04T08:36:19.010Z,3.40
2023-07-04T08:38:48.992Z,3.33
2023-07-04T08:41:45.607Z,3.77
2023-07-04T08:44:25.194Z,3.40
2023-07-04T08:46:56.084Z,4.10
2023-07-04T08:49:35.558Z,3.77
2023-07-04T08:52:54.239Z,3.50
2023-07-04T08:55:21.311Z,3.40
2023-07-04T08:57:53.222Z,3.00
2023-07-04T09:00:29.113Z,3.30
2023-07-04T09:02:58.700Z,2.33
2023-07-04T09:05:41.231Z,3.90
2023-07-04T09:08:36.284Z,3.70
2023-07-04T09:11:06.118Z,4.30
2023-07-04T09:13:40.199Z,3.70
2023-07-04T09:16:31.958Z,3.57
2023-07-04T09:19:03.438Z,3.30
2023-07-04T09:21:31.929Z,3.97
2023-07-04T09:24:01.136Z,3.37
2023-07-04T09:26:46.139Z,2.97
2023-07-04T09:29:17.269Z,3.80
2023-07-04T09:31:47.802Z,3.73
2023-07-04T09:34:22.493Z,3.53
2023-07-04T09:36:52.638Z,3.20
2023-07-04T09:39:19.403Z,3.60
2023-07-04T09:42:14.765Z,2.80
2023-07-04T09:44:46.188Z,3.10
2023-07-04T09:47:23.742Z,3.50
2023-07-04T09:50:12.893Z,3.37
2023-07-04T09:52:39.730Z,3.03
2023-07-04T09:55:29.813Z,3.37
2023-07-04T09:58:20.667Z,3.40
2023-07-04T10:01:07.830Z,3.23
2023-07-04T10:03:35.050Z,3.17
2023-07-04T10:06:02.486Z,3.13
2023-07-04T10:08:29.673Z,3.03
2023-07-04T10:10:59.066Z,3.47
2023-07-04T10:13:40.193Z,3.00
2023-07-04T10:16:23.632Z,3.13
2023-07-04T10:18:50.921Z,5.10
2023-07-04T10:21:19.299Z,3.50
2023-07-04T10:23:47.092Z,3.70
2023-07-04T10:26:16.436Z,3.27
2023-07-04T10:28:44.005Z,3.40
2023-07-04T10:31:17.301Z,4.00
2023-07-04T10:33:47.380Z,4.80
2023-07-04T10:36:20.813Z,4.50
2023-07-04T10:38:51.372Z,4.27
2023-07-04T10:41:41.630Z,4.10
2023-07-04T10:44:15.209Z,4.23
2023-07-04T10:46:53.586Z,4.00
2023-07-04T10:49:23.916Z,4.23
2023-07-04T10:51:57.232Z,3.63
2023-07-04T10:54:23.958Z,4.33
2023-07-04T10:56:54.570Z,4.57
2023-07-04T10:59:28.275Z,4.17
2023-07-04T11:02:15.110Z,4.97
2023-07-04T11:04:42.394Z,4.17
2023-07-04T11:07:18.373Z,4.27
2023-07-04T11:09:46.208Z,4.53
2023-07-04T11:12:19.620Z,4.37
2023-07-04T11:14:48.716Z,4.80
2023-07-04T11:17:20.073Z,4.70
2023-07-04T11:19:56.910Z,4.60
2023-07-04T11:22:40.323Z,5.17
2023-07-04T11:25:34.877Z,4.90
2023-07-04T11:28:45.155Z,5.63
2023-07-04T11:31:28.407Z,4.77
2023-07-04T11:33:55.240Z,5.10
2023-07-04T11:36:27.981Z,4.70
2023-07-04T11:38:59.533Z,5.70
2023-07-04T11:41:29.022Z,5.10
2023-07-04T11:43:56.820Z,5.50
2023-07-04T11:46:26.166Z,4.80
2023-07-04T11:48:56.004Z,5.70
2023-07-04T11:51:25.432Z,5.37
2023-07-04T11:54:01.565Z,4.50
2023-07-04T11:56:31.158Z,4.70
2023-07-04T11:59:12.847Z,5.50
2023-07-04T12:01:59.370Z,4.80
2023-07-04T12:04:35.440Z,5.50
2023-07-04T12:07:11.132Z,5.67
2023-07-04T12:09:53.916Z,5.70
2023-07-04T12:12:25.701Z,4.90
2023-07-04T12:15:10.074Z,6.00
2023-07-04T12:17:39.783Z,5.73
2023-07-04T12:20:14.406Z,5.57
2023-07-04T12:22:46.046Z,5.10
2023-07-04T12:25:20.331Z,5.70
2023-07-04T12:27:47.519Z,4.80
2023-07-04T12:30:15.758Z,6.10
2023-07-04T12:32:42.962Z,6.47
2023-07-04T12:35:16.500Z,5.60
2023-07-04T12:37:47.985Z,6.17
2023-07-04T12:40:18.111Z,5.60
2023-07-04T12:42:46.160Z,6.97
2023-07-04T12:45:25.048Z,6.00
2023-07-04T12:50:25.161Z,5.53
2023-07-04T12:52:52.644Z,6.00
2023-07-04T12:55:28.243Z,6.47
2023-07-04T12:57:57.509Z,6.30
2023-07-04T13:00:36.994Z,5.53
2023-07-04T13:03:17.369Z,7.23
2023-07-04T13:05:46.918Z,8.27
2023-07-04T13:08:21.091Z,6.07
2023-07-04T13:10:51.305Z,7.33
2023-07-04T13:13:33.023Z,6.30
2023-07-04T13:16:19.529Z,6.50
2023-07-04T13:18:47.634Z,5.83
2023-07-04T13:21:33.745Z,6.90
2023-07-04T13:26:41.051Z,7.53
2023-07-04T13:34:23.859Z,6.50
2023-07-04T13:37:03.165Z,7.10
2023-07-04T13:42:01.358Z,6.30
2023-07-04T13:46:57.797Z,7.00
2023-07-04T13:49:25.037Z,7.77
2023-07-04T13:51:52.194Z,7.00
2023-07-04T13:54:19.227Z,6.73
2023-07-04T13:56:45.977Z,8.57
2023-07-04T13:59:12.692Z,6.80
2023-07-04T14:06:39.541Z,7.73
2023-07-04T14:09:06.447Z,7.23
2023-07-04T14:11:33.228Z,7.50
2023-07-04T14:14:04.202Z,7.07
2023-07-04T14:19:59.057Z,6.93
2023-07-04T14:21:50.883Z,6.17
2023-07-04T14:24:17.718Z,7.27
2023-07-04T14:26:45.254Z,6.53
2023-07-04T14:29:12.008Z,7.03
2023-07-04T14:31:39.284Z,7.33
2023-07-04T14:34:06.203Z,7.10
2023-07-04T14:36:32.939Z,6.43
2023-07-04T14:39:01.310Z,7.47
2023-07-04T14:44:00.150Z,7.53
2023-07-04T14:46:26.910Z,6.43
2023-07-04T14:48:53.926Z,6.90
2023-07-04T14:51:20.773Z,6.97
2023-07-04T14:53:47.509Z,7.23
2023-07-04T14:56:16.369Z,6.93
2023-07-04T14:58:44.360Z,6.37
2023-07-04T15:01:18.294Z,6.60
2023-07-04T15:03:45.337Z,7.87
2023-07-04T15:06:12.537Z,7.23
2023-07-04T15:08:39.774Z,7.57
2023-07-04T15:11:06.651Z,7.20
2023-07-04T15:13:34.267Z,6.87
2023-07-04T15:16:03.894Z,6.93
2023-07-04T15:18:36.216Z,7.13
2023-07-04T15:21:04.526Z,6.83
2023-07-04T15:23:31.585Z,6.83
2023-07-04T15:26:10.630Z,7.13
2023-07-04T15:28:46.085Z,7.17
2023-07-04T15:31:13.009Z,6.80
2023-07-04T15:33:40.064Z,7.13
2023-07-04T15:36:07.438Z,7.10
2023-07-04T15:38:34.615Z,6.50
2023-07-04T15:41:03.072Z,7.20
2023-07-04T15:43:35.105Z,8.00
2023-07-04T15:46:04.998Z,6.90
2023-07-04T15:48:31.826Z,7.33
2023-07-04T15:50:59.152Z,7.30
2023-07-04T15:53:26.749Z,7.63
2023-07-04T15:56:03.669Z,7.27
2023-07-04T15:58:32.572Z,6.67
2023-07-04T16:01:01.660Z,6.70
2023-07-04T16:03:29.519Z,7.00
2023-07-04T16:05:57.998Z,6.77
2023-07-04T16:08:26.153Z,7.37
2023-07-04T16:10:57.712Z,7.83
2023-07-04T16:13:24.818Z,6.80
2023-07-04T16:15:52.129Z,6.87
2023-07-04T16:18:19.125Z,6.90
2023-07-04T16:20:46.049Z,6.93
2023-07-04T16:23:13.223Z,7.63
2023-07-04T16:25:44.200Z,6.77
2023-07-04T16:28:12.312Z,6.97
2023-07-04T16:30:40.402Z,6.40
2023-07-04T16:33:07.297Z,7.37
2023-07-04T16:35:34.115Z,6.27
2023-07-04T16:38:00.911Z,6.10
2023-07-04T16:40:27.652Z,6.97
2023-07-04T16:42:54.562Z,7.03
2023-07-04T16:45:21.298Z,6.43
2023-07-04T16:47:48.092Z,6.40
2023-07-04T16:50:30.104Z,6.10
2023-07-04T16:53:00.034Z,6.50
2023-07-04T16:55:27.076Z,6.73
2023-07-04T16:57:53.835Z,6.47
2023-07-04T17:00:20.759Z,7.40
2023-07-04T17:02:47.599Z,6.80
2023-07-04T17:05:14.904Z,6.80
2023-07-04T17:07:41.676Z,7.03
2023-07-04T17:10:09.593Z,7.37
2023-07-04T17:12:37.125Z,6.40
2023-07-04T17:15:04.405Z,6.67
2023-07-04T17:17:31.308Z,6.67
2023-07-04T17:19:58.235Z,7.13
2023-07-04T17:22:25.115Z,6.57
2023-07-04T17:25:02.714Z,6.47
2023-07-04T17:27:34.228Z,7.23
2023-07-04T17:30:00.968Z,6.77
2023-07-04T17:32:28.008Z,6.67
2023-07-04T17:34:54.709Z,7.47
2023-07-04T17:37:21.409Z,6.67
2023-07-04T17:39:48.317Z,6.87
2023-07-04T17:42:15.029Z,7.27
2023-07-04T17:44:41.734Z,7.20
2023-07-04T17:47:08.544Z,6.70
2023-07-04T17:49:35.412Z,7.57
2023-07-04T17:52:02.643Z,7.10
2023-07-04T17:54:29.367Z,6.23
2023-07-04T17:56:56.121Z,7.20
2023-07-04T17:59:22.897Z,7.00
2023-07-04T18:01:49.672Z,6.93
2023-07-04T18:04:16.468Z,6.90
2023-07-04T18:06:43.263Z,6.40
2023-07-04T18:09:10.080Z,6.60
2023-07-04T18:11:37.890Z,6.80
2023-07-04T18:14:05.031Z,6.77
2023-07-04T18:16:33.665Z,6.73
2023-07-04T18:19:00.698Z,6.50
2023-07-04T18:21:28.077Z,6.63
2023-07-04T18:24:00.622Z,7.37
2023-07-04T18:26:27.575Z,6.40
2023-07-04T18:28:55.210Z,6.90
2023-07-04T18:31:25.358Z,7.13
2023-07-04T18:33:59.175Z,7.00
2023-07-04T18:36:29.716Z,6.23
2023-07-04T18:38:56.661Z,6.47
2023-07-04T18:41:30.100Z,6.17
2023-07-04T18:43:57.776Z,7.03
2023-07-04T18:46:27.199Z,6.53
2023-07-04T18:48:54.491Z,6.57
2023-07-04T18:51:24.386Z,6.60
2023-07-04T18:53:51.893Z,6.53
2023-07-04T18:56:18.917Z,7.17
2023-07-04T18:58:45.868Z,6.43
2023-07-04T19:01:33.238Z,6.77
2023-07-04T19:04:00.501Z,7.13
2023-07-04T19:06:35.086Z,7.43
2023-07-04T19:09:02.666Z,6.27
2023-07-04T19:11:31.019Z,6.37
2023-07-04T19:14:06.664Z,6.73
2023-07-04T19:16:39.085Z,7.27
2023-07-04T19:19:09.245Z,7.30
2023-07-04T19:21:39.633Z,9.20
2023-07-04T19:24:06.634Z,9.67
2023-07-04T19:26:35.566Z,10.13
2023-07-04T19:29:03.890Z,7.20
2023-07-04T19:31:30.645Z,8.50
2023-07-04T19:33:58.454Z,8.20
2023-07-04T19:36:25.252Z,7.53
2023-07-04T19:38:52.024Z,8.00
2023-07-04T19:41:18.930Z,7.53
2023-07-04T19:43:45.647Z,7.83
2023-07-04T19:46:14.799Z,7.87
2023-07-04T19:48:41.665Z,6.97
2023-07-04T19:51:10.675Z,7.57
2023-07-04T19:53:39.155Z,6.80
2023-07-04T19:56:09.206Z,7.47
2023-07-04T19:58:36.428Z,7.07
2023-07-04T20:01:11.571Z,6.27
2023-07-04T20:03:39.373Z,6.90
2023-07-04T20:06:08.098Z,7.43
2023-07-04T20:08:35.242Z,6.70
2023-07-04T20:11:03.454Z,6.70
2023-07-04T20:13:32.407Z,7.20
2023-07-04T20:16:04.797Z,7.93
2023-07-04T20:18:31.720Z,7.43
2023-07-04T20:20:58.502Z,6.63
2023-07-04T20:23:25.928Z,7.03
2023-07-04T20:25:56.586Z,7.17
2023-07-04T20:28:24.463Z,7.40
2023-07-04T20:30:56.679Z,7.37
2023-07-04T20:33:25.437Z,7.43
2023-07-04T20:35:52.521Z,7.20
2023-07-04T20:38:19.747Z,7.63
2023-07-04T20:40:47.031Z,7.50
2023-07-04T20:43:15.172Z,6.77
2023-07-04T20:45:42.165Z,7.77
2023-07-04T20:48:10.971Z,7.37
2023-07-04T20:50:38.973Z,8.03
2023-07-04T20:53:05.986Z,7.63
2023-07-04T20:55:35.064Z,7.20
2023-07-04T20:58:02.718Z,7.70
2023-07-04T21:00:29.465Z,8.70
2023-07-04T21:02:58.326Z,8.37
2023-07-04T21:05:26.137Z,8.30
2023-07-04T21:07:54.357Z,7.37
2023-07-04T21:10:27.384Z,7.57
2023-07-04T21:12:55.763Z,7.70
2023-07-04T21:15:25.624Z,7.23
2023-07-04T21:17:52.997Z,7.73
2023-07-04T21:20:20.272Z,7.80
2023-07-04T21:22:47.149Z,8.27
2023-07-04T21:25:13.927Z,8.17
2023-07-04T21:27:40.663Z,8.20
2023-07-04T21:30:08.435Z,8.00
2023-07-04T21:32:35.800Z,7.87
2023-07-04T21:35:02.616Z,7.80
2023-07-04T21:37:29.435Z,7.87
2023-07-04T21:39:56.356Z,8.33
2023-07-04T21:42:23.119Z,7.60
2023-07-04T21:44:54.143Z,8.70
2023-07-04T21:47:21.383Z,8.03
2023-07-04T21:49:49.782Z,8.03
2023-07-04T21:52:17.256Z,7.40
2023-07-04T21:54:45.445Z,8.10
2023-07-04T21:57:12.767Z,7.80
2023-07-04T21:59:39.544Z,7.70
2023-07-04T22:02:06.689Z,7.57
2023-07-04T22:04:33.546Z,7.80
2023-07-04T22:07:00.255Z,7.23
2023-07-04T22:09:27.100Z,7.57
2023-07-04T22:11:54.027Z,7.43
2023-07-04T22:14:36.300Z,8.00
2023-07-04T22:17:04.635Z,7.30
2023-07-04T22:19:31.744Z,7.50
2023-07-04T22:21:58.713Z,6.73
2023-07-04T22:24:27.373Z,7.30
2023-07-04T22:26:54.474Z,6.70
2023-07-04T22:29:21.277Z,7.07
2023-07-04T22:31:48.032Z,6.13
2023-07-04T22:34:14.891Z,5.60
2023-07-04T22:36:41.865Z,5.10
2023-07-04T22:39:09.464Z,6.27
2023-07-04T22:41:36.998Z,6.00
2023-07-04T22:44:04.142Z,5.53
2023-07-04T22:46:31.255Z,5.63
2023-07-04T22:48:58.824Z,5.60
2023-07-04T22:51:25.628Z,5.17
2023-07-04T22:53:52.717Z,5.53
2023-07-04T22:56:20.606Z,5.47
2023-07-04T22:58:47.791Z,4.47
2023-07-04T23:01:20.225Z,5.73
2023-07-04T23:03:48.613Z,5.23
2023-07-04T23:06:16.280Z,5.03
2023-07-04T23:08:44.497Z,5.50
2023-07-04T23:11:11.984Z,5.50
2023-07-04T23:13:38.889Z,4.87
2023-07-04T23:16:14.890Z,4.90
2023-07-04T23:18:43.929Z,5.30
2023-07-04T23:21:11.206Z,4.73
2023-07-04T23:23:38.261Z,4.73
2023-07-04T23:26:16.419Z,5.10
2023-07-04T23:28:44.131Z,4.50
2023-07-04T23:31:12.458Z,5.30
2023-07-04T23:33:40.100Z,5.37
2023-07-04T23:36:07.562Z,3.93
2023-07-04T23:38:34.558Z,4.67
2023-07-04T23:41:01.281Z,4.70
2023-07-04T23:43:28.214Z,4.50
2023-07-04T23:45:55.795Z,4.77
2023-07-04T23:48:23.175Z,5.83
2023-07-04T23:50:50.470Z,4.50
2023-07-04T23:53:17.614Z,5.07
2023-07-04T23:55:44.664Z,4.97
2023-07-04T23:58:11.741Z,4.13
